createdAt,value
2022-09-10T00:01:10.835Z,100676.53
2022-09-10T00:03:43.604Z,100672.19
2022-09-10T00:06:18.440Z,100675.88
2022-09-10T00:08:51.044Z,100667.72
2022-09-10T00:11:25.181Z,100668.19
2022-09-10T00:13:58.195Z,100671.28
2022-09-10T00:16:31.240Z,100671.28
2022-09-10T00:19:03.782Z,100656.91
2022-09-10T00:21:36.174Z,100667.94
2022-09-10T00:24:08.454Z,100667.94
2022-09-10T00:26:40.820Z,100666.34
2022-09-10T00:29:15.099Z,100664.22
2022-09-10T00:31:47.494Z,100661.78
2022-09-10T00:34:19.814Z,100662.69
2022-09-10T00:36:52.063Z,100669.34
2022-09-10T00:39:24.390Z,100666.56
2022-09-10T00:41:57.740Z,100664.88
2022-09-10T00:44:43.632Z,100665.03
2022-09-10T00:47:23.611Z,100658.69
2022-09-10T00:49:58.350Z,100654.69
2022-09-10T00:52:30.788Z,100667.97
2022-09-10T00:55:03.622Z,100656.88
2022-09-10T00:57:36.103Z,100659.03
2022-09-10T01:00:10.494Z,100662.13
2022-09-10T01:02:43.301Z,100654.94
2022-09-10T01:05:17.340Z,100667.69
2022-09-10T01:07:49.638Z,100663.25
2022-09-10T01:10:24.627Z,100676.34
2022-09-10T01:13:02.780Z,100667.56
2022-09-10T01:15:46.309Z,100671.06
2022-09-10T01:18:28.206Z,100665.22
2022-09-10T01:21:11.268Z,100676.34
2022-09-10T01:24:13.046Z,100673.13
2022-09-10T01:27:03.905Z,100670.84
2022-09-10T01:29:39.432Z,100676.47
2022-09-10T01:32:15.371Z,100675.44
2022-09-10T01:34:53.151Z,100674.03
2022-09-10T01:37:28.784Z,100674.91
2022-09-10T01:40:01.836Z,100680.16
2022-09-10T01:42:37.174Z,100678.25
2022-09-10T01:45:12.150Z,100670.16
2022-09-10T01:48:02.985Z,100671.69
2022-09-10T01:50:57.169Z,100677.56
2022-09-10T01:53:33.369Z,100674.03
2022-09-10T01:56:27.749Z,100677.56
2022-09-10T01:59:04.058Z,100669.69
2022-09-10T02:01:41.275Z,100663.03
2022-09-10T02:04:15.043Z,100665.38
2022-09-10T02:06:48.539Z,100666.91
2022-09-10T02:09:20.972Z,100661.03
2022-09-10T02:11:54.285Z,100667.22
2022-09-10T02:14:26.759Z,100667.22
2022-09-10T02:16:59.815Z,100670.00
2022-09-10T02:19:32.139Z,100662.75
2022-09-10T02:22:04.700Z,100654.91
2022-09-10T02:24:36.970Z,100649.97
2022-09-10T02:27:09.988Z,100656.31
2022-09-10T02:29:42.458Z,100650.75
2022-09-10T02:32:14.827Z,100646.88
2022-09-10T02:34:48.274Z,100650.88
2022-09-10T02:37:20.823Z,100649.34
2022-09-10T02:39:53.206Z,100649.78
2022-09-10T02:42:26.370Z,100651.81
2022-09-10T02:44:58.926Z,100650.25
2022-09-10T02:47:31.271Z,100653.22
2022-09-10T02:50:06.666Z,100653.97
2022-09-10T02:52:39.136Z,100658.59
2022-09-10T02:55:12.644Z,100654.59
2022-09-10T02:57:45.385Z,100655.06
2022-09-10T03:00:19.492Z,100657.06
2022-09-10T03:02:51.876Z,100656.44
2022-09-10T03:05:24.263Z,100651.81
2022-09-10T03:07:57.169Z,100660.44
2022-09-10T03:10:31.797Z,100658.00
2022-09-10T03:13:04.276Z,100654.28
2022-09-10T03:15:36.593Z,100646.88
2022-09-10T03:18:09.314Z,100653.03
2022-09-10T03:20:41.825Z,100661.38
2022-09-10T03:23:14.310Z,100664.16
2022-09-10T03:25:49.617Z,100655.38
2022-09-10T03:28:23.833Z,100658.16
2022-09-10T03:30:56.713Z,100661.69
2022-09-10T03:33:29.206Z,100654.94
2022-09-10T03:36:02.600Z,100664.78
2022-09-10T03:38:35.150Z,100656.78
2022-09-10T03:41:07.877Z,100655.09
2022-09-10T03:43:40.435Z,100652.16
2022-09-10T03:46:12.838Z,100653.69
2022-09-10T03:48:45.156Z,100647.50
2022-09-10T03:51:17.527Z,100652.78
2022-09-10T03:53:49.833Z,100652.16
2022-09-10T03:56:22.404Z,100647.22
2022-09-10T03:58:54.736Z,100651.53
2022-09-10T04:01:27.382Z,100648.44
2022-09-10T04:03:59.860Z,100655.88
2022-09-10T04:06:35.677Z,100647.84
2022-09-10T04:09:08.105Z,100650.97
2022-09-10T04:11:40.849Z,100653.41
2022-09-10T04:14:13.188Z,100646.31
2022-09-10T04:16:46.722Z,100650.63
2022-09-10T04:19:19.073Z,100637.66
2022-09-10T04:21:52.938Z,100644.75
2022-09-10T04:24:25.486Z,100643.19
2022-09-10T04:26:58.957Z,100640.44
2022-09-10T04:29:32.517Z,100633.03
2022-09-10T04:32:04.966Z,100638.56
2022-09-10T04:34:37.576Z,100637.00
2022-09-10T04:37:10.050Z,100637.81
2022-09-10T04:39:43.763Z,100639.34
2022-09-10T04:42:20.221Z,100643.38
2022-09-10T04:44:52.562Z,100637.81
2022-09-10T04:47:24.939Z,100646.91
2022-09-10T04:49:57.613Z,100644.75
2022-09-10T04:52:30.015Z,100640.91
2022-09-10T04:55:02.433Z,100652.19
2022-09-10T04:57:36.026Z,100645.84
2022-09-10T05:00:08.844Z,100649.72
2022-09-10T05:02:41.318Z,100641.25
2022-09-10T05:05:13.933Z,100654.19
2022-09-10T05:07:46.278Z,100649.41
2022-09-10T05:10:20.683Z,100643.06
2022-09-10T05:12:53.809Z,100645.09
2022-09-10T05:15:26.625Z,100646.31
2022-09-10T05:17:59.606Z,100660.50
2022-09-10T05:20:32.091Z,100648.00
2022-09-10T05:23:04.590Z,100642.31
2022-09-10T05:25:37.677Z,100646.47
2022-09-10T08:49:23.756Z,100765.50
2022-09-10T08:52:02.087Z,100767.69
2022-09-10T08:54:37.787Z,100767.03
2022-09-10T08:57:22.131Z,100773.25
2022-09-10T08:59:56.650Z,100774.63
2022-09-10T09:02:49.391Z,100772.28
2022-09-10T09:05:24.856Z,100785.25
2022-09-10T09:07:59.515Z,100789.63
2022-09-10T09:10:50.894Z,100787.59
2022-09-10T09:13:42.158Z,100788.06
2022-09-10T09:16:20.470Z,100789.94
2022-09-10T09:18:54.539Z,100796.91
2022-09-10T09:21:36.757Z,100794.75
2022-09-10T09:24:23.574Z,100789.97
2022-09-10T09:27:01.120Z,100798.44
2022-09-10T09:29:39.715Z,100787.16
2022-09-10T09:32:14.024Z,100791.34
2022-09-10T09:34:51.367Z,100792.75
2022-09-10T09:37:25.753Z,100788.56
2022-09-10T09:40:07.183Z,100791.50
2022-09-10T09:42:44.279Z,100786.69
2022-09-10T09:45:21.460Z,100791.63
2022-09-10T09:47:54.575Z,100792.66
2022-09-10T09:50:29.131Z,100797.63
2022-09-10T09:53:01.394Z,100795.13
2022-09-10T09:55:37.758Z,100799.97
2022-09-10T09:58:30.329Z,100798.09
2022-09-10T10:01:05.930Z,100797.97
2022-09-10T10:03:48.287Z,100793.94
2022-09-10T10:06:22.255Z,100800.88
2022-09-10T10:08:57.025Z,100795.63
2022-09-10T10:11:47.165Z,100796.91
2022-09-10T10:14:20.119Z,100800.81
2022-09-10T10:16:57.368Z,100807.00
2022-09-10T10:19:38.376Z,100799.63
2022-09-10T10:22:20.598Z,100808.91
2022-09-10T10:24:54.315Z,100813.41
2022-09-10T10:27:32.706Z,100818.84
2022-09-10T10:30:14.312Z,100813.34
2022-09-10T10:32:52.603Z,100810.72
2022-09-10T10:35:28.155Z,100814.50
2022-09-10T10:38:03.222Z,100826.38
2022-09-10T10:40:39.267Z,100821.31
2022-09-10T10:43:26.546Z,100821.19
2022-09-10T10:46:07.641Z,100826.94
2022-09-10T10:48:46.901Z,100826.41
2022-09-10T10:51:36.498Z,100826.94
2022-09-10T10:54:19.757Z,100829.75
2022-09-10T10:57:10.810Z,100828.25
2022-09-10T10:59:53.366Z,100824.00
2022-09-10T11:02:38.424Z,100821.94
2022-09-10T11:05:31.764Z,100821.84
2022-09-10T11:08:07.999Z,100828.22
2022-09-10T11:10:40.308Z,100839.63
2022-09-10T11:13:15.986Z,100831.91
2022-09-10T11:15:52.453Z,100821.88
2022-09-10T11:18:28.387Z,100821.88
2022-09-10T11:21:20.896Z,100824.59
2022-09-10T11:23:56.141Z,100824.44
2022-09-10T11:26:34.798Z,100816.09
2022-09-10T11:29:16.147Z,100818.72
2022-09-10T11:32:02.829Z,100820.41
2022-09-10T11:34:50.057Z,100822.28
2022-09-10T11:37:45.467Z,100809.34
2022-09-10T11:40:36.703Z,100819.41
2022-09-10T11:43:14.530Z,100815.56
2022-09-10T11:45:48.797Z,100828.72
2022-09-10T11:48:24.884Z,100825.47
2022-09-10T11:51:01.951Z,100834.44
2022-09-10T11:53:36.920Z,100837.84
2022-09-10T11:56:09.439Z,100837.88
2022-09-10T11:58:48.962Z,100835.06
2022-09-10T12:01:33.963Z,100830.00
2022-09-10T12:04:24.729Z,100836.00
2022-09-10T12:07:09.264Z,100836.00
2022-09-10T12:09:52.074Z,100828.22
2022-09-10T12:12:37.831Z,100820.41
2022-09-10T12:15:15.552Z,100831.84
2022-09-10T12:17:50.769Z,100845.09
2022-09-10T12:20:28.633Z,100856.38
2022-09-10T12:23:01.337Z,100853.81
2022-09-10T12:25:35.023Z,100858.19
2022-09-10T12:28:27.573Z,100865.38
2022-09-10T12:31:00.610Z,100871.25
2022-09-10T12:33:33.015Z,100857.00
2022-09-10T12:36:05.391Z,100866.31
2022-09-10T12:38:46.945Z,100859.41
2022-09-10T12:41:25.275Z,100873.56
2022-09-10T12:43:58.560Z,100872.41
2022-09-10T12:46:31.477Z,100869.31
2022-09-10T12:49:05.434Z,100872.38
2022-09-10T12:51:43.865Z,100873.81
2022-09-10T12:54:19.723Z,100872.44
2022-09-10T12:56:56.571Z,100875.41
2022-09-10T12:59:47.920Z,100872.59
2022-09-10T13:02:28.602Z,100871.72
2022-09-10T13:05:03.135Z,100866.84
2022-09-10T13:07:41.673Z,100859.84
2022-09-10T13:10:21.714Z,100856.59
2022-09-10T13:12:56.779Z,100859.75
2022-09-10T13:15:30.972Z,100873.41
2022-09-10T13:18:09.216Z,100889.16
2022-09-10T13:20:41.477Z,100888.69
2022-09-10T13:23:18.188Z,100895.22
2022-09-10T13:25:51.329Z,100898.63
2022-09-10T13:28:29.888Z,100894.97
2022-09-10T13:31:02.133Z,100907.31
2022-09-10T13:33:49.766Z,100902.00
2022-09-10T13:36:25.081Z,100902.31
2022-09-10T13:39:16.266Z,100890.06
2022-09-10T13:42:04.505Z,100890.56
2022-09-10T13:44:39.480Z,100892.72
2022-09-10T13:47:24.392Z,100893.31
2022-09-10T13:50:02.423Z,100906.31
2022-09-10T13:52:36.088Z,100916.19
2022-09-10T13:55:08.672Z,100916.13
2022-09-10T13:57:42.772Z,100916.06
2022-09-10T14:00:15.274Z,100928.56
2022-09-10T14:02:48.577Z,100924.34
2022-09-10T14:05:41.151Z,100929.97
2022-09-10T14:08:20.309Z,100938.31
2022-09-10T14:10:56.185Z,100934.91
2022-09-10T14:13:31.066Z,100943.66
2022-09-10T14:16:04.704Z,100951.03
2022-09-10T14:18:43.346Z,100950.00
2022-09-10T14:21:17.229Z,100946.78
2022-09-10T14:23:49.665Z,100952.88
2022-09-10T14:26:27.308Z,100950.56
2022-09-10T14:29:01.186Z,100953.59
2022-09-10T14:31:35.348Z,100955.13
2022-09-10T14:34:24.955Z,100962.84
2022-09-10T14:36:58.746Z,100960.84
2022-09-10T14:39:31.187Z,100957.88
2022-09-10T14:42:21.559Z,100956.34
2022-09-10T14:44:54.315Z,100959.72
2022-09-10T14:47:29.680Z,100955.50
2022-09-10T14:50:20.772Z,100958.56
2022-09-10T14:52:53.479Z,100955.47
2022-09-10T14:55:27.638Z,100959.16
2022-09-10T14:58:00.062Z,100966.94
2022-09-10T15:00:33.272Z,100966.19
2022-09-10T15:03:14.009Z,100961.13
2022-09-10T15:05:46.266Z,100977.53
2022-09-10T15:08:18.600Z,100975.56
2022-09-10T15:10:50.957Z,100988.53
2022-09-10T15:13:23.216Z,100985.16
2022-09-10T15:15:55.888Z,100986.88
2022-09-10T15:18:28.241Z,100992.63
2022-09-10T15:21:01.385Z,101000.91
2022-09-10T15:23:34.573Z,101004.84
2022-09-10T15:26:06.924Z,101017.00
2022-09-10T15:28:39.525Z,101034.66
2022-09-10T15:31:11.861Z,101036.41
2022-09-10T15:33:44.300Z,101036.41
2022-09-10T15:36:16.583Z,101035.53
2022-09-10T15:38:52.666Z,101032.88
2022-09-10T15:41:25.206Z,101036.38
2022-09-10T15:43:58.088Z,101041.22
2022-09-10T15:46:30.467Z,101040.22
2022-09-10T15:49:04.240Z,101044.56
2022-09-10T15:51:36.545Z,101045.06
2022-09-10T15:54:10.322Z,101051.47
2022-09-10T15:56:42.704Z,101046.38
2022-09-10T15:59:16.968Z,101048.44
2022-09-10T16:01:50.080Z,101045.03
2022-09-10T16:04:23.469Z,101044.72
2022-09-10T16:06:57.083Z,101039.63
2022-09-10T16:09:29.662Z,101037.72
2022-09-10T16:12:02.086Z,101033.34
2022-09-10T16:14:35.825Z,101041.50
2022-09-10T16:17:10.748Z,101036.38
2022-09-10T16:19:43.021Z,101048.78
2022-09-10T16:22:18.743Z,101041.16
2022-09-10T16:24:53.009Z,101046.81
2022-09-10T16:27:25.375Z,101054.28
2022-09-10T16:29:57.636Z,101056.94
2022-09-10T16:32:31.576Z,101058.47
2022-09-10T16:35:04.603Z,101061.75
2022-09-10T16:37:37.432Z,101063.34
2022-09-10T16:40:11.362Z,101060.38
2022-09-10T16:42:43.639Z,101062.59
2022-09-10T16:45:15.914Z,101062.31
2022-09-10T16:47:48.216Z,101068.66
2022-09-10T16:50:20.656Z,101070.22
2022-09-10T16:52:53.803Z,101071.16
2022-09-10T16:55:26.223Z,101068.50
2022-09-10T16:57:58.556Z,101076.25
2022-09-10T17:00:30.927Z,101083.38
2022-09-10T17:03:03.745Z,101077.94
2022-09-10T17:05:36.325Z,101092.22
2022-09-10T17:08:09.645Z,101093.00
2022-09-10T17:10:42.016Z,101093.75
2022-09-10T17:13:14.857Z,101091.41
2022-09-10T17:15:47.425Z,101093.44
2022-09-10T17:18:19.785Z,101092.47
2022-09-10T17:20:55.097Z,101091.25
2022-09-10T17:23:29.000Z,101095.47
2022-09-10T17:26:06.266Z,101090.97
2022-09-10T17:28:38.906Z,101091.00
2022-09-10T17:31:11.398Z,101095.31
2022-09-10T17:33:44.085Z,101103.69
2022-09-10T17:36:17.456Z,101106.47
2022-09-10T17:38:49.915Z,101108.66
2022-09-10T17:41:23.017Z,101105.84
2022-09-10T17:43:55.778Z,101114.22
2022-09-10T17:46:28.199Z,101120.13
2022-09-10T17:49:00.916Z,101123.53
2022-09-10T17:51:34.370Z,101129.72
2022-09-10T17:54:08.339Z,101137.34
2022-09-10T17:56:41.666Z,101134.84
2022-09-10T17:59:14.322Z,101144.31
2022-09-10T18:01:47.652Z,101145.22
2022-09-10T18:04:21.530Z,101150.66
2022-09-10T18:06:55.294Z,101160.88
2022-09-10T18:09:27.852Z,101163.22
2022-09-10T18:12:02.090Z,101166.59
2022-09-10T18:14:34.558Z,101165.03
2022-09-10T18:17:06.889Z,101169.34
2022-09-10T18:19:39.493Z,101164.44
2022-09-10T18:22:12.464Z,101163.00
2022-09-10T18:24:44.800Z,101168.53
2022-09-10T18:27:18.389Z,101176.47
2022-09-10T18:29:51.140Z,101184.66
2022-09-10T18:32:26.146Z,101181.13
2022-09-10T18:34:58.676Z,101189.16
2022-09-10T18:37:33.438Z,101185.25
2022-09-10T18:40:06.748Z,101189.53
2022-09-10T18:42:42.502Z,101194.59
2022-09-10T18:45:17.379Z,101199.78
2022-09-10T18:47:49.819Z,101199.25
2022-09-10T18:50:22.212Z,101203.06
2022-09-10T18:52:54.545Z,101206.97
2022-09-10T18:55:26.865Z,101219.13
2022-09-10T18:57:59.409Z,101219.25
2022-09-10T19:00:33.451Z,101222.28
2022-09-10T19:03:06.083Z,101220.38
2022-09-10T19:05:38.389Z,101231.31
2022-09-10T19:08:10.700Z,101230.31
2022-09-10T19:10:43.042Z,101234.34
2022-09-10T19:13:16.672Z,101239.03
2022-09-10T19:15:56.068Z,101245.06
2022-09-10T19:18:29.257Z,101240.03
2022-09-10T19:21:06.434Z,101248.59
2022-09-10T19:23:39.607Z,101248.84
2022-09-10T19:26:12.189Z,101258.03
2022-09-10T19:28:45.399Z,101259.72
2022-09-10T19:31:20.585Z,101268.16
2022-09-10T19:33:57.366Z,101277.38
2022-09-10T19:36:35.232Z,101277.28
2022-09-10T19:39:08.903Z,101284.94
2022-09-10T19:41:42.015Z,101283.06
2022-09-10T19:44:15.864Z,101285.16
2022-09-10T19:46:48.206Z,101291.56
2022-09-10T19:49:20.982Z,101287.44
2022-09-10T19:51:55.065Z,101272.47
2022-09-10T19:54:28.614Z,101299.06
2022-09-10T19:57:00.882Z,101301.16
2022-09-10T19:59:33.420Z,101300.16
2022-09-10T20:02:05.869Z,101302.25
